sensor_id;sensor_type;location;lat;lon;timestamp;P1;durP1;ratioP1;P2;durP2;ratioP2
16391;SDS011;8305;-33.882;151.134;2023-02-18T00:02:25;4.00;;;1.33;;
16391;SDS011;8305;-33.882;151.134;2023-02-18T00:04:56;2.28;;;1.10;;
16391;SDS011;8305;-33.882;151.134;2023-02-18T00:07:30;3.50;;;1.20;;
16391;SDS011;8305;-33.882;151.134;2023-02-18T00:10:03;3.13;;;1.50;;
16391;SDS011;8305;-33.882;151.134;2023-02-18T00:12:36;1.92;;;1.13;;
16391;SDS011;8305;-33.882;151.134;2023-02-18T00:15:07;5.00;;;1.52;;
16391;SDS011;8305;-33.882;151.134;2023-02-18T00:17:38;2.67;;;1.52;;
16391;SDS011;8305;-33.882;151.134;2023-02-18T00:20:10;4.13;;;1.60;;
16391;SDS011;8305;-33.882;151.134;2023-02-18T00:22:43;4.07;;;1.90;;
16391;SDS011;8305;-33.882;151.134;2023-02-18T00:25:14;3.42;;;1.50;;
16391;SDS011;8305;-33.882;151.134;2023-02-18T00:27:45;5.47;;;1.85;;
16391;SDS011;8305;-33.882;151.134;2023-02-18T00:30:16;5.90;;;1.50;;
16391;SDS011;8305;-33.882;151.134;2023-02-18T00:32:48;4.53;;;1.30;;
16391;SDS011;8305;-33.882;151.134;2023-02-18T00:35:19;5.47;;;1.58;;
16391;SDS011;8305;-33.882;151.134;2023-02-18T00:37:55;5.88;;;1.50;;
16391;SDS011;8305;-33.882;151.134;2023-02-18T00:40:26;6.93;;;2.15;;
16391;SDS011;8305;-33.882;151.134;2023-02-18T00:42:58;4.28;;;1.52;;
16391;SDS011;8305;-33.882;151.134;2023-02-18T00:45:29;4.95;;;1.92;;
16391;SDS011;8305;-33.882;151.134;2023-02-18T00:48:00;5.63;;;1.60;;
16391;SDS011;8305;-33.882;151.134;2023-02-18T00:50:31;7.82;;;1.95;;
16391;SDS011;8305;-33.882;151.134;2023-02-18T00:53:04;6.63;;;1.80;;
16391;SDS011;8305;-33.882;151.134;2023-02-18T00:55:38;4.88;;;1.60;;
16391;SDS011;8305;-33.882;151.134;2023-02-18T00:58:09;5.38;;;1.58;;
16391;SDS011;8305;-33.882;151.134;2023-02-18T01:00:42;5.43;;;1.80;;
16391;SDS011;8305;-33.882;151.134;2023-02-18T01:03:13;6.40;;;1.50;;
16391;SDS011;8305;-33.882;151.134;2023-02-18T01:05:44;4.03;;;1.60;;
16391;SDS011;8305;-33.882;151.134;2023-02-18T01:08:17;5.32;;;2.03;;
16391;SDS011;8305;-33.882;151.134;2023-02-18T01:10:56;4.78;;;1.50;;
16391;SDS011;8305;-33.882;151.134;2023-02-18T01:13:27;6.85;;;1.70;;
16391;SDS011;8305;-33.882;151.134;2023-02-18T01:15:59;5.88;;;1.70;;
16391;SDS011;8305;-33.882;151.134;2023-02-18T01:18:31;4.53;;;1.50;;
16391;SDS011;8305;-33.882;151.134;2023-02-18T01:21:02;3.60;;;1.55;;
16391;SDS011;8305;-33.882;151.134;2023-02-18T01:23:36;4.93;;;1.80;;
16391;SDS011;8305;-33.882;151.134;2023-02-18T01:26:08;4.80;;;1.73;;
16391;SDS011;8305;-33.882;151.134;2023-02-18T01:28:39;5.97;;;1.80;;
16391;SDS011;8305;-33.882;151.134;2023-02-18T01:31:11;6.53;;;2.00;;
16391;SDS011;8305;-33.882;151.134;2023-02-18T01:33:43;5.47;;;1.60;;
16391;SDS011;8305;-33.882;151.134;2023-02-18T01:36:14;8.82;;;2.20;;
16391;SDS011;8305;-33.882;151.134;2023-02-18T01:38:48;8.52;;;1.90;;
16391;SDS011;8305;-33.882;151.134;2023-02-18T01:41:20;4.38;;;1.92;;
16391;SDS011;8305;-33.882;151.134;2023-02-18T01:46:43;4.93;;;1.70;;
16391;SDS011;8305;-33.882;151.134;2023-02-18T01:49:15;4.95;;;1.75;;
16391;SDS011;8305;-33.882;151.134;2023-02-18T01:51:49;5.22;;;1.67;;
16391;SDS011;8305;-33.882;151.134;2023-02-18T01:54:27;7.50;;;1.85;;
16391;SDS011;8305;-33.882;151.134;2023-02-18T01:57:00;4.55;;;1.45;;
16391;SDS011;8305;-33.882;151.134;2023-02-18T01:59:36;3.65;;;1.40;;
16391;SDS011;8305;-33.882;151.134;2023-02-18T02:02:09;6.80;;;1.90;;
16391;SDS011;8305;-33.882;151.134;2023-02-18T02:04:43;5.00;;;1.73;;
16391;SDS011;8305;-33.882;151.134;2023-02-18T02:07:15;4.30;;;1.60;;
16391;SDS011;8305;-33.882;151.134;2023-02-18T02:09:50;5.47;;;1.70;;
16391;SDS011;8305;-33.882;151.134;2023-02-18T02:18:06;6.45;;;2.10;;
16391;SDS011;8305;-33.882;151.134;2023-02-18T02:21:06;7.82;;;2.15;;
16391;SDS011;8305;-33.882;151.134;2023-02-18T02:24:09;7.60;;;1.55;;
16391;SDS011;8305;-33.882;151.134;2023-02-18T02:27:13;9.55;;;1.98;;
16391;SDS011;8305;-33.882;151.134;2023-02-18T02:29:58;4.18;;;1.80;;
16391;SDS011;8305;-33.882;151.134;2023-02-18T02:32:52;6.00;;;1.83;;
16391;SDS011;8305;-33.882;151.134;2023-02-18T02:35:52;4.07;;;1.50;;
16391;SDS011;8305;-33.882;151.134;2023-02-18T02:38:29;5.32;;;1.45;;
16391;SDS011;8305;-33.882;151.134;2023-02-18T02:41:11;5.78;;;1.77;;
16391;SDS011;8305;-33.882;151.134;2023-02-18T02:43:50;6.75;;;1.88;;
16391;SDS011;8305;-33.882;151.134;2023-02-18T02:46:30;5.85;;;1.73;;
16391;SDS011;8305;-33.882;151.134;2023-02-18T02:49:08;8.52;;;1.95;;
16391;SDS011;8305;-33.882;151.134;2023-02-18T02:51:51;4.53;;;1.65;;
16391;SDS011;8305;-33.882;151.134;2023-02-18T02:54:27;4.60;;;1.95;;
16391;SDS011;8305;-33.882;151.134;2023-02-18T02:57:05;4.75;;;1.85;;
16391;SDS011;8305;-33.882;151.134;2023-02-18T02:59:58;5.85;;;1.45;;
16391;SDS011;8305;-33.882;151.134;2023-02-18T03:02:36;4.90;;;1.90;;
16391;SDS011;8305;-33.882;151.134;2023-02-18T03:05:20;5.55;;;1.65;;
16391;SDS011;8305;-33.882;151.134;2023-02-18T03:08:14;5.72;;;1.65;;
16391;SDS011;8305;-33.882;151.134;2023-02-18T03:10:59;7.40;;;1.70;;
16391;SDS011;8305;-33.882;151.134;2023-02-18T03:13:38;4.80;;;1.67;;
16391;SDS011;8305;-33.882;151.134;2023-02-18T03:16:22;6.38;;;2.00;;
16391;SDS011;8305;-33.882;151.134;2023-02-18T03:18:57;6.07;;;1.67;;
16391;SDS011;8305;-33.882;151.134;2023-02-18T03:21:35;5.07;;;1.90;;
16391;SDS011;8305;-33.882;151.134;2023-02-18T03:24:12;8.25;;;2.00;;
16391;SDS011;8305;-33.882;151.134;2023-02-18T03:26:47;7.40;;;2.05;;
16391;SDS011;8305;-33.882;151.134;2023-02-18T03:29:22;4.45;;;1.90;;
16391;SDS011;8305;-33.882;151.134;2023-02-18T03:31:54;5.28;;;1.80;;
16391;SDS011;8305;-33.882;151.134;2023-02-18T03:34:30;7.28;;;1.98;;
16391;SDS011;8305;-33.882;151.134;2023-02-18T03:37:03;7.18;;;2.03;;
16391;SDS011;8305;-33.882;151.134;2023-02-18T03:39:39;5.80;;;1.90;;
16391;SDS011;8305;-33.882;151.134;2023-02-18T03:42:12;8.27;;;1.90;;
16391;SDS011;8305;-33.882;151.134;2023-02-18T03:44:44;7.32;;;1.95;;
16391;SDS011;8305;-33.882;151.134;2023-02-18T03:47:15;9.52;;;2.13;;
16391;SDS011;8305;-33.882;151.134;2023-02-18T03:49:46;3.95;;;1.83;;
16391;SDS011;8305;-33.882;151.134;2023-02-18T03:52:18;5.22;;;1.80;;
16391;SDS011;8305;-33.882;151.134;2023-02-18T03:54:51;6.50;;;2.05;;
16391;SDS011;8305;-33.882;151.134;2023-02-18T03:57:22;6.90;;;1.90;;
16391;SDS011;8305;-33.882;151.134;2023-02-18T03:59:53;4.00;;;1.88;;
16391;SDS011;8305;-33.882;151.134;2023-02-18T04:02:24;6.13;;;1.98;;
16391;SDS011;8305;-33.882;151.134;2023-02-18T04:04:56;6.35;;;2.10;;
16391;SDS011;8305;-33.882;151.134;2023-02-18T04:07:27;7.40;;;2.08;;
16391;SDS011;8305;-33.882;151.134;2023-02-18T04:10:00;7.03;;;2.05;;
16391;SDS011;8305;-33.882;151.134;2023-02-18T04:12:31;4.78;;;2.03;;
16391;SDS011;8305;-33.882;151.134;2023-02-18T04:15:02;3.33;;;1.70;;
16391;SDS011;8305;-33.882;151.134;2023-02-18T04:17:34;8.95;;;1.80;;
16391;SDS011;8305;-33.882;151.134;2023-02-18T04:20:05;6.63;;;1.80;;
16391;SDS011;8305;-33.882;151.134;2023-02-18T04:22:38;5.53;;;1.85;;
16391;SDS011;8305;-33.882;151.134;2023-02-18T04:25:12;6.07;;;2.03;;
16391;SDS011;8305;-33.882;151.134;2023-02-18T04:27:44;5.20;;;1.80;;
16391;SDS011;8305;-33.882;151.134;2023-02-18T04:30:15;6.95;;;1.83;;
16391;SDS011;8305;-33.882;151.134;2023-02-18T04:32:46;6.57;;;1.80;;
16391;SDS011;8305;-33.882;151.134;2023-02-18T04:35:20;5.13;;;1.50;;
16391;SDS011;8305;-33.882;151.134;2023-02-18T04:37:51;5.43;;;1.70;;
16391;SDS011;8305;-33.882;151.134;2023-02-18T04:40:24;5.00;;;1.70;;
16391;SDS011;8305;-33.882;151.134;2023-02-18T04:42:56;4.75;;;1.50;;
16391;SDS011;8305;-33.882;151.134;2023-02-18T04:45:27;3.20;;;1.50;;
16391;SDS011;8305;-33.882;151.134;2023-02-18T04:47:58;6.20;;;1.85;;
16391;SDS011;8305;-33.882;151.134;2023-02-18T04:50:29;4.32;;;1.60;;
16391;SDS011;8305;-33.882;151.134;2023-02-18T04:53:00;5.13;;;1.80;;
16391;SDS011;8305;-33.882;151.134;2023-02-18T04:55:33;3.05;;;1.58;;
16391;SDS011;8305;-33.882;151.134;2023-02-18T04:58:05;3.90;;;1.60;;
16391;SDS011;8305;-33.882;151.134;2023-02-18T05:00:36;6.07;;;1.75;;
16391;SDS011;8305;-33.882;151.134;2023-02-18T05:03:07;3.80;;;1.70;;
16391;SDS011;8305;-33.882;151.134;2023-02-18T05:05:41;6.70;;;1.80;;
16391;SDS011;8305;-33.882;151.134;2023-02-18T05:08:12;5.05;;;1.83;;
16391;SDS011;8305;-33.882;151.134;2023-02-18T05:10:46;5.63;;;1.98;;
16391;SDS011;8305;-33.882;151.134;2023-02-18T05:13:17;4.97;;;2.00;;
16391;SDS011;8305;-33.882;151.134;2023-02-18T05:15:48;7.63;;;1.90;;
16391;SDS011;8305;-33.882;151.134;2023-02-18T05:18:20;4.40;;;1.70;;
16391;SDS011;8305;-33.882;151.134;2023-02-18T05:20:51;4.60;;;2.00;;
16391;SDS011;8305;-33.882;151.134;2023-02-18T05:23:22;4.90;;;1.70;;
16391;SDS011;8305;-33.882;151.134;2023-02-18T05:25:55;6.15;;;1.63;;
16391;SDS011;8305;-33.882;151.134;2023-02-18T05:28:27;6.18;;;1.70;;
16391;SDS011;8305;-33.882;151.134;2023-02-18T05:30:58;4.88;;;1.50;;
16391;SDS011;8305;-33.882;151.134;2023-02-18T05:33:29;6.00;;;1.65;;
16391;SDS011;8305;-33.882;151.134;2023-02-18T05:36:00;5.43;;;2.05;;
16391;SDS011;8305;-33.882;151.134;2023-02-18T05:38:31;7.28;;;1.90;;
16391;SDS011;8305;-33.882;151.134;2023-02-18T05:41:04;5.65;;;2.03;;
16391;SDS011;8305;-33.882;151.134;2023-02-18T05:43:35;3.60;;;1.42;;
16391;SDS011;8305;-33.882;151.134;2023-02-18T05:46:19;6.30;;;1.92;;
16391;SDS011;8305;-33.882;151.134;2023-02-18T05:48:50;7.43;;;1.75;;
16391;SDS011;8305;-33.882;151.134;2023-02-18T05:51:21;6.55;;;2.00;;
16391;SDS011;8305;-33.882;151.134;2023-02-18T05:53:53;4.85;;;1.70;;
16391;SDS011;8305;-33.882;151.134;2023-02-18T05:56:26;5.22;;;1.92;;
16391;SDS011;8305;-33.882;151.134;2023-02-18T05:58:57;7.75;;;1.88;;
16391;SDS011;8305;-33.882;151.134;2023-02-18T06:01:28;5.65;;;1.58;;
16391;SDS011;8305;-33.882;151.134;2023-02-18T06:03:59;7.60;;;2.95;;
16391;SDS011;8305;-33.882;151.134;2023-02-18T06:06:31;7.22;;;2.05;;
16391;SDS011;8305;-33.882;151.134;2023-02-18T06:09:03;5.05;;;1.83;;
16391;SDS011;8305;-33.882;151.134;2023-02-18T06:11:37;8.98;;;2.15;;
16391;SDS011;8305;-33.882;151.134;2023-02-18T06:14:08;7.43;;;2.63;;
16391;SDS011;8305;-33.882;151.134;2023-02-18T06:16:39;7.07;;;2.17;;
16391;SDS011;8305;-33.882;151.134;2023-02-18T06:19:10;10.32;;;2.10;;
16391;SDS011;8305;-33.882;151.134;2023-02-18T06:21:41;7.32;;;1.88;;
16391;SDS011;8305;-33.882;151.134;2023-02-18T06:24:13;6.53;;;2.28;;
16391;SDS011;8305;-33.882;151.134;2023-02-18T06:26:46;10.48;;;2.65;;
16391;SDS011;8305;-33.882;151.134;2023-02-18T06:29:17;5.45;;;2.08;;
16391;SDS011;8305;-33.882;151.134;2023-02-18T06:31:48;6.15;;;1.63;;
16391;SDS011;8305;-33.882;151.134;2023-02-18T06:34:19;7.00;;;2.13;;
16391;SDS011;8305;-33.882;151.134;2023-02-18T06:36:50;6.22;;;2.05;;
16391;SDS011;8305;-33.882;151.134;2023-02-18T06:39:21;5.00;;;1.60;;
16391;SDS011;8305;-33.882;151.134;2023-02-18T06:41:55;6.45;;;1.63;;
16391;SDS011;8305;-33.882;151.134;2023-02-18T06:44:26;4.95;;;2.00;;
16391;SDS011;8305;-33.882;151.134;2023-02-18T06:46:57;5.28;;;1.60;;
16391;SDS011;8305;-33.882;151.134;2023-02-18T06:49:28;3.55;;;1.50;;
16391;SDS011;8305;-33.882;151.134;2023-02-18T06:51:59;6.88;;;1.50;;
16391;SDS011;8305;-33.882;151.134;2023-02-18T06:54:30;4.85;;;1.42;;
16391;SDS011;8305;-33.882;151.134;2023-02-18T06:57:04;9.18;;;1.48;;
16391;SDS011;8305;-33.882;151.134;2023-02-18T06:59:35;4.13;;;1.38;;
16391;SDS011;8305;-33.882;151.134;2023-02-18T07:02:06;4.50;;;1.30;;
16391;SDS011;8305;-33.882;151.134;2023-02-18T07:04:39;4.57;;;1.35;;
16391;SDS011;8305;-33.882;151.134;2023-02-18T07:07:10;6.53;;;1.40;;
16391;SDS011;8305;-33.882;151.134;2023-02-18T07:09:42;5.88;;;1.60;;
16391;SDS011;8305;-33.882;151.134;2023-02-18T07:12:15;6.50;;;1.55;;
16391;SDS011;8305;-33.882;151.134;2023-02-18T07:14:46;6.40;;;1.90;;
16391;SDS011;8305;-33.882;151.134;2023-02-18T07:17:17;6.38;;;1.65;;
16391;SDS011;8305;-33.882;151.134;2023-02-18T07:19:48;6.65;;;1.80;;
16391;SDS011;8305;-33.882;151.134;2023-02-18T07:22:21;6.18;;;2.03;;
16391;SDS011;8305;-33.882;151.134;2023-02-18T07:24:52;6.05;;;1.70;;
16391;SDS011;8305;-33.882;151.134;2023-02-18T07:27:25;3.83;;;1.92;;
16391;SDS011;8305;-33.882;151.134;2023-02-18T07:29:56;4.78;;;1.67;;
16391;SDS011;8305;-33.882;151.134;2023-02-18T07:32:27;4.63;;;1.30;;
16391;SDS011;8305;-33.882;151.134;2023-02-18T07:34:59;10.15;;;1.20;;
16391;SDS011;8305;-33.882;151.134;2023-02-18T07:37:30;4.53;;;1.27;;
16391;SDS011;8305;-33.882;151.134;2023-02-18T07:40:01;10.45;;;0.90;;
16391;SDS011;8305;-33.882;151.134;2023-02-18T07:45:07;4.10;;;0.98;;
16391;SDS011;8305;-33.882;151.134;2023-02-18T07:47:39;2.00;;;0.90;;
16391;SDS011;8305;-33.882;151.134;2023-02-18T07:50:10;2.30;;;1.00;;
16391;SDS011;8305;-33.882;151.134;2023-02-18T07:52:42;3.75;;;0.93;;
16391;SDS011;8305;-33.882;151.134;2023-02-18T07:55:13;1.58;;;0.75;;
16391;SDS011;8305;-33.882;151.134;2023-02-18T07:57:46;3.58;;;0.80;;
16391;SDS011;8305;-33.882;151.134;2023-02-18T08:00:27;2.55;;;0.80;;
16391;SDS011;8305;-33.882;151.134;2023-02-18T08:02:58;2.50;;;0.95;;
16391;SDS011;8305;-33.882;151.134;2023-02-18T08:05:29;1.73;;;0.70;;
16391;SDS011;8305;-33.882;151.134;2023-02-18T08:08:01;1.80;;;0.80;;
16391;SDS011;8305;-33.882;151.134;2023-02-18T08:10:32;1.98;;;0.90;;
16391;SDS011;8305;-33.882;151.134;2023-02-18T08:13:05;7.45;;;1.17;;
16391;SDS011;8305;-33.882;151.134;2023-02-18T08:15:36;2.63;;;1.10;;
16391;SDS011;8305;-33.882;151.134;2023-02-18T08:18:09;3.70;;;1.13;;
16391;SDS011;8305;-33.882;151.134;2023-02-18T08:20:45;6.50;;;1.20;;
16391;SDS011;8305;-33.882;151.134;2023-02-18T08:23:17;3.80;;;1.40;;
16391;SDS011;8305;-33.882;151.134;2023-02-18T08:25:51;4.05;;;1.40;;
16391;SDS011;8305;-33.882;151.134;2023-02-18T08:28:24;4.80;;;1.70;;
16391;SDS011;8305;-33.882;151.134;2023-02-18T08:30:55;4.15;;;1.30;;
16391;SDS011;8305;-33.882;151.134;2023-02-18T08:33:27;3.33;;;1.15;;
16391;SDS011;8305;-33.882;151.134;2023-02-18T08:35:58;4.60;;;1.20;;
16391;SDS011;8305;-33.882;151.134;2023-02-18T08:38:29;4.75;;;1.20;;
16391;SDS011;8305;-33.882;151.134;2023-02-18T08:41:04;3.20;;;1.02;;
16391;SDS011;8305;-33.882;151.134;2023-02-18T08:43:38;4.13;;;1.77;;
16391;SDS011;8305;-33.882;151.134;2023-02-18T08:46:09;3.58;;;1.20;;
16391;SDS011;8305;-33.882;151.134;2023-02-18T08:48:40;2.40;;;1.20;;
16391;SDS011;8305;-33.882;151.134;2023-02-18T08:51:12;3.30;;;1.00;;
16391;SDS011;8305;-33.882;151.134;2023-02-18T08:53:44;3.95;;;1.20;;
16391;SDS011;8305;-33.882;151.134;2023-02-18T08:56:16;3.40;;;1.20;;
16391;SDS011;8305;-33.882;151.134;2023-02-18T08:58:49;2.80;;;1.00;;
16391;SDS011;8305;-33.882;151.134;2023-02-18T09:01:20;3.35;;;1.27;;
16391;SDS011;8305;-33.882;151.134;2023-02-18T09:03:52;2.90;;;1.38;;
16391;SDS011;8305;-33.882;151.134;2023-02-18T09:06:23;4.45;;;1.42;;
16391;SDS011;8305;-33.882;151.134;2023-02-18T09:08:54;4.20;;;1.30;;
16391;SDS011;8305;-33.882;151.134;2023-02-18T09:11:25;4.18;;;1.40;;
16391;SDS011;8305;-33.882;151.134;2023-02-18T09:13:58;3.67;;;1.67;;
16391;SDS011;8305;-33.882;151.134;2023-02-18T09:16:30;4.28;;;1.60;;
16391;SDS011;8305;-33.882;151.134;2023-02-18T09:19:01;4.65;;;1.45;;
16391;SDS011;8305;-33.882;151.134;2023-02-18T09:21:32;4.72;;;1.50;;
16391;SDS011;8305;-33.882;151.134;2023-02-18T09:24:04;4.28;;;1.83;;
16391;SDS011;8305;-33.882;151.134;2023-02-18T09:26:35;7.03;;;2.08;;
16391;SDS011;8305;-33.882;151.134;2023-02-18T09:29:08;3.80;;;1.70;;
16391;SDS011;8305;-33.882;151.134;2023-02-18T09:31:39;6.43;;;2.13;;
16391;SDS011;8305;-33.882;151.134;2023-02-18T09:34:11;5.82;;;2.15;;
16391;SDS011;8305;-33.882;151.134;2023-02-18T09:36:42;6.03;;;2.08;;
16391;SDS011;8305;-33.882;151.134;2023-02-18T09:39:13;6.43;;;1.92;;
16391;SDS011;8305;-33.882;151.134;2023-02-18T09:41:45;3.80;;;1.42;;
16391;SDS011;8305;-33.882;151.134;2023-02-18T09:44:22;5.40;;;1.40;;
16391;SDS011;8305;-33.882;151.134;2023-02-18T09:46:57;5.82;;;1.75;;
16391;SDS011;8305;-33.882;151.134;2023-02-18T09:49:31;5.30;;;1.77;;
16391;SDS011;8305;-33.882;151.134;2023-02-18T09:52:06;4.28;;;1.35;;
16391;SDS011;8305;-33.882;151.134;2023-02-18T09:54:44;3.70;;;1.45;;
16391;SDS011;8305;-33.882;151.134;2023-02-18T09:57:20;7.45;;;1.60;;
16391;SDS011;8305;-33.882;151.134;2023-02-18T09:59:57;7.50;;;1.70;;
16391;SDS011;8305;-33.882;151.134;2023-02-18T10:02:31;4.10;;;1.63;;
16391;SDS011;8305;-33.882;151.134;2023-02-18T10:05:03;3.58;;;1.38;;
16391;SDS011;8305;-33.882;151.134;2023-02-18T10:07:35;6.03;;;1.63;;
16391;SDS011;8305;-33.882;151.134;2023-02-18T10:10:11;4.32;;;1.60;;
16391;SDS011;8305;-33.882;151.134;2023-02-18T10:12:49;4.15;;;1.30;;
16391;SDS011;8305;-33.882;151.134;2023-02-18T10:15:26;3.00;;;1.75;;
16391;SDS011;8305;-33.882;151.134;2023-02-18T10:17:58;3.47;;;1.60;;
16391;SDS011;8305;-33.882;151.134;2023-02-18T10:20:30;5.60;;;3.20;;
16391;SDS011;8305;-33.882;151.134;2023-02-18T10:23:02;3.88;;;2.05;;
16391;SDS011;8305;-33.882;151.134;2023-02-18T10:25:33;2.00;;;1.40;;
16391;SDS011;8305;-33.882;151.134;2023-02-18T10:28:11;3.80;;;1.20;;
16391;SDS011;8305;-33.882;151.134;2023-02-18T10:30:45;3.05;;;1.10;;
16391;SDS011;8305;-33.882;151.134;2023-02-18T10:33:24;1.67;;;0.90;;
16391;SDS011;8305;-33.882;151.134;2023-02-18T10:36:04;1.58;;;0.90;;
16391;SDS011;8305;-33.882;151.134;2023-02-18T10:39:03;1.38;;;0.85;;
16391;SDS011;8305;-33.882;151.134;2023-02-18T10:42:01;3.00;;;0.77;;
16391;SDS011;8305;-33.882;151.134;2023-02-18T10:44:43;1.55;;;0.80;;
16391;SDS011;8305;-33.882;151.134;2023-02-18T10:47:26;1.02;;;0.93;;
16391;SDS011;8305;-33.882;151.134;2023-02-18T10:50:10;2.03;;;0.88;;
16391;SDS011;8305;-33.882;151.134;2023-02-18T10:52:50;2.53;;;0.90;;
16391;SDS011;8305;-33.882;151.134;2023-02-18T10:55:33;2.72;;;0.98;;
16391;SDS011;8305;-33.882;151.134;2023-02-18T10:58:22;1.58;;;0.80;;
16391;SDS011;8305;-33.882;151.134;2023-02-18T11:00:59;1.77;;;0.80;;
16391;SDS011;8305;-33.882;151.134;2023-02-18T11:03:43;1.00;;;0.80;;
16391;SDS011;8305;-33.882;151.134;2023-02-18T11:06:15;1.33;;;0.60;;
16391;SDS011;8305;-33.882;151.134;2023-02-18T11:08:52;1.55;;;0.80;;
16391;SDS011;8305;-33.882;151.134;2023-02-18T11:11:25;0.80;;;0.80;;
16391;SDS011;8305;-33.882;151.134;2023-02-18T11:14:00;1.38;;;0.80;;
16391;SDS011;8305;-33.882;151.134;2023-02-18T11:16:38;1.58;;;0.85;;
16391;SDS011;8305;-33.882;151.134;2023-02-18T11:22:06;1.10;;;0.80;;
16391;SDS011;8305;-33.882;151.134;2023-02-18T11:24:43;1.55;;;0.90;;
16391;SDS011;8305;-33.882;151.134;2023-02-18T11:27:20;1.10;;;0.88;;
16391;SDS011;8305;-33.882;151.134;2023-02-18T11:29:55;1.20;;;0.90;;
16391;SDS011;8305;-33.882;151.134;2023-02-18T11:32:30;2.20;;;1.00;;
16391;SDS011;8305;-33.882;151.134;2023-02-18T11:35:15;2.65;;;1.08;;
16391;SDS011;8305;-33.882;151.134;2023-02-18T11:37:49;2.85;;;1.30;;
16391;SDS011;8305;-33.882;151.134;2023-02-18T11:40:21;3.40;;;1.40;;
16391;SDS011;8305;-33.882;151.134;2023-02-18T11:43:02;3.78;;;1.30;;
16391;SDS011;8305;-33.882;151.134;2023-02-18T11:45:35;2.80;;;1.20;;
16391;SDS011;8305;-33.882;151.134;2023-02-18T11:48:07;3.42;;;1.40;;
16391;SDS011;8305;-33.882;151.134;2023-02-18T11:50:46;4.15;;;1.33;;
16391;SDS011;8305;-33.882;151.134;2023-02-18T11:53:28;2.70;;;1.33;;
16391;SDS011;8305;-33.882;151.134;2023-02-18T11:56:00;3.88;;;1.40;;
16391;SDS011;8305;-33.882;151.134;2023-02-18T11:58:35;2.83;;;1.38;;
16391;SDS011;8305;-33.882;151.134;2023-02-18T12:01:11;3.25;;;1.40;;
16391;SDS011;8305;-33.882;151.134;2023-02-18T12:03:45;3.95;;;1.20;;
16391;SDS011;8305;-33.882;151.134;2023-02-18T12:06:24;3.60;;;1.35;;
16391;SDS011;8305;-33.882;151.134;2023-02-18T12:08:59;4.72;;;1.60;;
16391;SDS011;8305;-33.882;151.134;2023-02-18T12:11:35;6.82;;;1.80;;
16391;SDS011;8305;-33.882;151.134;2023-02-18T12:14:09;3.33;;;1.45;;
16391;SDS011;8305;-33.882;151.134;2023-02-18T12:16:46;4.50;;;1.80;;
16391;SDS011;8305;-33.882;151.134;2023-02-18T12:22:37;2.63;;;1.50;;
16391;SDS011;8305;-33.882;151.134;2023-02-18T12:25:22;3.50;;;1.30;;
16391;SDS011;8305;-33.882;151.134;2023-02-18T12:28:04;4.38;;;1.50;;
16391;SDS011;8305;-33.882;151.134;2023-02-18T12:30:53;4.05;;;1.60;;
16391;SDS011;8305;-33.882;151.134;2023-02-18T12:33:46;5.68;;;1.60;;
16391;SDS011;8305;-33.882;151.134;2023-02-18T12:36:30;5.07;;;1.52;;
16391;SDS011;8305;-33.882;151.134;2023-02-18T12:39:13;4.10;;;1.60;;
16391;SDS011;8305;-33.882;151.134;2023-02-18T12:42:03;4.50;;;1.50;;
16391;SDS011;8305;-33.882;151.134;2023-02-18T12:44:50;3.38;;;1.45;;
16391;SDS011;8305;-33.882;151.134;2023-02-18T12:47:41;5.57;;;1.45;;
16391;SDS011;8305;-33.882;151.134;2023-02-18T12:50:24;5.05;;;2.00;;
16391;SDS011;8305;-33.882;151.134;2023-02-18T12:53:19;4.22;;;1.45;;
16391;SDS011;8305;-33.882;151.134;2023-02-18T12:56:09;5.85;;;2.00;;
16391;SDS011;8305;-33.882;151.134;2023-02-18T12:58:59;5.00;;;2.15;;
16391;SDS011;8305;-33.882;151.134;2023-02-18T13:01:42;12.82;;;3.05;;
16391;SDS011;8305;-33.882;151.134;2023-02-18T13:04:24;11.20;;;3.50;;
16391;SDS011;8305;-33.882;151.134;2023-02-18T13:13:23;22.40;;;4.82;;
16391;SDS011;8305;-33.882;151.134;2023-02-18T13:15:58;22.25;;;5.15;;
16391;SDS011;8305;-33.882;151.134;2023-02-18T13:18:33;18.10;;;4.45;;
16391;SDS011;8305;-33.882;151.134;2023-02-18T13:21:08;29.08;;;4.78;;
16391;SDS011;8305;-33.882;151.134;2023-02-18T13:23:44;25.15;;;5.25;;
16391;SDS011;8305;-33.882;151.134;2023-02-18T13:26:20;24.88;;;5.00;;
16391;SDS011;8305;-33.882;151.134;2023-02-18T13:28:54;25.20;;;5.13;;
16391;SDS011;8305;-33.882;151.134;2023-02-18T13:31:45;22.85;;;4.97;;
16391;SDS011;8305;-33.882;151.134;2023-02-18T13:34:29;18.05;;;4.68;;
16391;SDS011;8305;-33.882;151.134;2023-02-18T13:37:05;15.20;;;4.47;;
16391;SDS011;8305;-33.882;151.134;2023-02-18T13:39:44;19.58;;;4.43;;
16391;SDS011;8305;-33.882;151.134;2023-02-18T13:48:03;23.33;;;5.43;;
16391;SDS011;8305;-33.882;151.134;2023-02-18T13:50:54;15.85;;;4.25;;
16391;SDS011;8305;-33.882;151.134;2023-02-18T13:53:34;21.88;;;5.03;;
16391;SDS011;8305;-33.882;151.134;2023-02-18T13:56:08;19.83;;;4.47;;
16391;SDS011;8305;-33.882;151.134;2023-02-18T13:58:48;15.70;;;4.57;;
16391;SDS011;8305;-33.882;151.134;2023-02-18T14:01:30;17.70;;;4.20;;
16391;SDS011;8305;-33.882;151.134;2023-02-18T14:07:23;14.25;;;4.43;;
16391;SDS011;8305;-33.882;151.134;2023-02-18T14:09:57;14.30;;;4.03;;
16391;SDS011;8305;-33.882;151.134;2023-02-18T14:12:34;13.93;;;4.22;;
16391;SDS011;8305;-33.882;151.134;2023-02-18T14:18:21;13.38;;;4.05;;
16391;SDS011;8305;-33.882;151.134;2023-02-18T14:21:02;14.20;;;4.00;;
16391;SDS011;8305;-33.882;151.134;2023-02-18T14:23:57;10.35;;;4.13;;
16391;SDS011;8305;-33.882;151.134;2023-02-18T14:26:30;8.65;;;3.42;;
16391;SDS011;8305;-33.882;151.134;2023-02-18T14:29:17;9.30;;;3.53;;
16391;SDS011;8305;-33.882;151.134;2023-02-18T14:31:56;12.80;;;3.95;;
16391;SDS011;8305;-33.882;151.134;2023-02-18T14:37:50;13.43;;;3.65;;
16391;SDS011;8305;-33.882;151.134;2023-02-18T14:40:54;12.05;;;3.30;;
16391;SDS011;8305;-33.882;151.134;2023-02-18T14:43:42;7.72;;;3.00;;
16391;SDS011;8305;-33.882;151.134;2023-02-18T14:46:29;10.90;;;3.28;;
16391;SDS011;8305;-33.882;151.134;2023-02-18T14:49:10;14.50;;;3.65;;
16391;SDS011;8305;-33.882;151.134;2023-02-18T14:51:53;10.10;;;3.33;;
16391;SDS011;8305;-33.882;151.134;2023-02-18T14:54:29;9.82;;;2.97;;
16391;SDS011;8305;-33.882;151.134;2023-02-18T14:57:00;14.73;;;3.55;;
16391;SDS011;8305;-33.882;151.134;2023-02-18T14:59:36;8.90;;;2.78;;
16391;SDS011;8305;-33.882;151.134;2023-02-18T15:02:15;11.68;;;3.45;;
16391;SDS011;8305;-33.882;151.134;2023-02-18T15:04:50;10.13;;;3.15;;
16391;SDS011;8305;-33.882;151.134;2023-02-18T15:07:21;9.95;;;3.30;;
16391;SDS011;8305;-33.882;151.134;2023-02-18T15:09:54;15.43;;;3.53;;
16391;SDS011;8305;-33.882;151.134;2023-02-18T15:12:26;14.80;;;3.40;;
16391;SDS011;8305;-33.882;151.134;2023-02-18T15:14:59;13.70;;;3.45;;
16391;SDS011;8305;-33.882;151.134;2023-02-18T15:17:33;12.75;;;3.17;;
16391;SDS011;8305;-33.882;151.134;2023-02-18T15:20:04;10.38;;;2.70;;
16391;SDS011;8305;-33.882;151.134;2023-02-18T15:22:36;12.32;;;2.65;;
16391;SDS011;8305;-33.882;151.134;2023-02-18T15:25:10;12.98;;;3.10;;
16391;SDS011;8305;-33.882;151.134;2023-02-18T15:27:42;15.27;;;2.65;;
16391;SDS011;8305;-33.882;151.134;2023-02-18T15:30:17;14.43;;;3.28;;
16391;SDS011;8305;-33.882;151.134;2023-02-18T15:32:50;15.10;;;3.30;;
16391;SDS011;8305;-33.882;151.134;2023-02-18T15:35:22;20.23;;;3.38;;
16391;SDS011;8305;-33.882;151.134;2023-02-18T15:37:57;17.35;;;3.17;;
16391;SDS011;8305;-33.882;151.134;2023-02-18T15:40:32;13.05;;;3.10;;
16391;SDS011;8305;-33.882;151.134;2023-02-18T15:43:05;13.32;;;3.30;;
16391;SDS011;8305;-33.882;151.134;2023-02-18T15:45:43;16.10;;;3.20;;